Time;durP1;ratioP1;P1;durP2;ratioP2;P2;SDS_P1;SDS_P2;PMS_P1;PMS_P2;Temp;Humidity;BMP_temperature;BMP_pressure;BME280_temperature;BME280_humidity;BME280_pressure;Samples;Min_cycle;Max_cycle;Signal;HPM_P1;HPM_P2
2023/10/13 00:00:36;;;;;;;;;;;12.70;99.90;;;;;;5098237;28;19912;-58
2023/10/13 00:03:02;;;;;;;;;;;12.60;99.90;;;;;;5098025;28;20377;-58
2023/10/13 00:05:30;;;;;;;;;;;12.60;99.90;;;;;;5097831;28;20283;-58
2023/10/13 00:07:57;;;;;;;;;;;12.50;99.90;;;;;;5098025;28;19912;-58
2023/10/13 00:10:22;;;;;;;;;;;12.40;99.90;;;;;;5097666;28;19993;-58
2023/10/13 00:12:51;;;;;;;;;;;12.40;99.90;;;;;;5097604;28;20016;-58
2023/10/13 00:15:17;;;;;;;;;;;12.30;99.90;;;;;;5097755;28;19913;-58
2023/10/13 00:17:43;;;;;;;;;;;12.20;99.90;;;;;;5112970;28;19912;-58
2023/10/13 00:20:27;;;;;;;;;;;12.30;99.90;;;;;;5117984;28;19915;-58
2023/10/13 00:22:56;;;;;;;;;;;12.30;99.90;;;;;;5118248;28;19916;-58
2023/10/13 00:25:27;;;;;;;;;;;12.30;99.90;;;;;;5118099;28;19908;-58
2023/10/13 00:27:53;;;;;;;;;;;12.30;99.90;;;;;;5118059;28;20012;-58
2023/10/13 00:30:33;;;;;;;;;;;12.20;99.90;;;;;;5117946;28;19912;-58
2023/10/13 00:33:00;;;;;;;;;;;12.20;99.90;;;;;;5116618;28;19934;-58
2023/10/13 00:35:36;;;;;;;;;;;12.30;99.90;;;;;;5116366;28;19939;-58
2023/10/13 00:38:16;;;;;;;;;;;12.30;99.90;;;;;;5117917;28;19964;-58
2023/10/13 00:40:44;;;;;;;;;;;12.30;99.90;;;;;;5117721;28;19922;-58
2023/10/13 00:45:54;;;;;;;;;;;12.20;99.90;;;;;;5117453;28;19920;-58
2023/10/13 00:48:28;;;;;;;;;;;12.20;99.90;;;;;;5117750;28;19998;-58
2023/10/13 00:51:02;;;;;;;;;;;12.20;99.90;;;;;;5115895;28;20281;-58
2023/10/13 00:53:29;;;;;;;;;;;12.20;99.90;;;;;;5116242;28;19916;-58
2023/10/13 00:55:55;;;;;;;;;;;12.20;99.90;;;;;;5116103;28;19995;-58
2023/10/13 00:58:22;;;;;;;;;;;12.10;99.90;;;;;;5117161;27;20449;-58
2023/10/13 01:00:56;;;;;;;;;;;12.10;99.90;;;;;;5099074;28;19916;-58
2023/10/13 01:03:26;;;;;;;;;;;12.10;99.90;;;;;;5116000;28;19919;-58
2023/10/13 01:05:58;;;;;;;;;;;12.20;99.90;;;;;;5115952;28;19923;-58
2023/10/13 01:08:37;;;;;;;;;;;12.30;99.90;;;;;;5116605;28;19947;-58
2023/10/13 01:11:06;;;;;;;;;;;12.30;99.90;;;;;;5117051;28;19912;-58
2023/10/13 01:13:36;;;;;;;;;;;12.30;99.90;;;;;;5116799;28;19946;-58
2023/10/13 01:16:02;;;;;;;;;;;12.30;99.90;;;;;;5116145;28;19922;-58
2023/10/13 01:18:28;;;;;;;;;;;12.30;99.90;;;;;;5096602;28;19929;-58
2023/10/13 01:20:58;;;;;;;;;;;12.20;99.90;;;;;;5094879;28;20258;-58
2023/10/13 01:23:28;;;;;;;;;;;12.10;99.90;;;;;;5096630;28;19920;-58
2023/10/13 01:25:56;;;;;;;;;;;12.20;99.90;;;;;;5096448;28;19919;-58
2023/10/13 01:28:22;;;;;;;;;;;12.10;99.90;;;;;;5095095;28;19916;-58
2023/10/13 01:30:51;;;;;;;;;;;12.00;99.90;;;;;;5095162;28;19977;-58
2023/10/13 01:33:17;;;;;;;;;;;12.00;99.90;;;;;;5096427;28;20281;-58
2023/10/13 01:35:47;;;;;;;;;;;12.10;99.90;;;;;;5094831;28;19912;-58
2023/10/13 01:38:13;;;;;;;;;;;12.00;99.90;;;;;;5096353;28;19912;-58
2023/10/13 01:40:39;;;;;;;;;;;12.00;99.90;;;;;;5095106;28;19912;-58
2023/10/13 01:43:10;;;;;;;;;;;11.90;99.90;;;;;;5095975;28;19912;-58
2023/10/13 01:45:39;;;;;;;;;;;11.80;99.90;;;;;;5094919;28;19913;-58
2023/10/13 01:48:04;;;;;;;;;;;11.80;99.90;;;;;;5094974;28;19912;-58
2023/10/13 01:50:31;;;;;;;;;;;11.90;99.90;;;;;;5094507;28;19914;-58
2023/10/13 01:53:12;;;;;;;;;;;11.80;99.90;;;;;;5096136;28;19916;-58
2023/10/13 01:55:42;;;;;;;;;;;11.70;99.90;;;;;;5096168;28;19912;-58
2023/10/13 01:58:15;;;;;;;;;;;11.70;99.90;;;;;;5096184;28;20007;-58
2023/10/13 02:00:42;;;;;;;;;;;11.70;99.90;;;;;;5094648;28;20357;-58
2023/10/13 02:03:14;;;;;;;;;;;11.60;99.90;;;;;;5094353;28;19927;-58
2023/10/13 02:05:46;;;;;;;;;;;11.60;99.90;;;;;;5094806;28;20377;-58
2023/10/13 02:08:25;;;;;;;;;;;11.60;99.90;;;;;;5095931;28;19965;-58
2023/10/13 02:10:52;;;;;;;;;;;11.50;99.90;;;;;;5094525;28;19951;-58
2023/10/13 02:13:19;;;;;;;;;;;11.40;99.90;;;;;;5095734;28;19965;-58
2023/10/13 02:15:45;;;;;;;;;;;11.40;99.90;;;;;;5094550;28;19937;-58
2023/10/13 02:18:20;;;;;;;;;;;11.40;99.90;;;;;;5114662;28;19911;-58
2023/10/13 02:20:54;;;;;;;;;;;11.40;99.90;;;;;;5119277;28;20315;-58
2023/10/13 02:23:21;;;;;;;;;;;11.40;99.90;;;;;;5120492;28;19916;-58
2023/10/13 02:25:47;;;;;;;;;;;11.40;99.90;;;;;;5118766;28;19919;-58
2023/10/13 02:28:21;;;;;;;;;;;11.30;99.90;;;;;;5119061;28;19912;-58
2023/10/13 02:30:50;;;;;;;;;;;11.30;99.90;;;;;;5119161;28;20361;-58
2023/10/13 02:33:29;;;;;;;;;;;11.30;99.90;;;;;;5118792;28;19965;-58
2023/10/13 02:35:58;;;;;;;;;;;11.30;99.90;;;;;;5118873;28;19965;-58
2023/10/13 02:41:28;;;;;;;;;;;11.30;99.90;;;;;;5118659;28;20388;-58
2023/10/13 02:43:55;;;;;;;;;;;11.30;99.90;;;;;;5118753;28;20356;-58
2023/10/13 02:46:22;;;;;;;;;;;11.30;99.90;;;;;;5119949;28;20434;-58
2023/10/13 02:48:57;;;;;;;;;;;11.30;99.90;;;;;;5119960;28;19916;-58
2023/10/13 02:51:31;;;;;;;;;;;11.40;99.90;;;;;;5120078;28;19911;-58
2023/10/13 02:54:02;;;;;;;;;;;11.40;99.90;;;;;;5119936;28;19912;-58
2023/10/13 02:56:29;;;;;;;;;;;11.30;99.90;;;;;;5119681;28;19918;-57
2023/10/13 02:58:56;;;;;;;;;;;11.40;99.90;;;;;;5119740;28;20261;-58
2023/10/13 03:01:27;;;;;;;;;;;11.40;99.90;;;;;;5118235;28;19928;-58
2023/10/13 03:03:58;;;;;;;;;;;11.40;99.90;;;;;;5119318;28;19916;-58
2023/10/13 03:06:32;;;;;;;;;;;11.30;99.90;;;;;;5119756;28;19912;-58
2023/10/13 03:09:15;;;;;;;;;;;11.30;99.90;;;;;;5119632;28;19911;-58
2023/10/13 03:11:59;;;;;;;;;;;11.30;99.90;;;;;;5118037;28;19912;-57
2023/10/13 03:14:30;;;;;;;;;;;11.40;99.90;;;;;;5117895;28;19919;-58
2023/10/13 03:17:06;;;;;;;;;;;11.40;99.90;;;;;;5109570;28;19912;-58
2023/10/13 03:19:38;;;;;;;;;;;11.30;99.90;;;;;;5097890;28;19920;-58
2023/10/13 03:22:11;;;;;;;;;;;11.40;99.90;;;;;;5098884;28;20009;-58
2023/10/13 03:24:45;;;;;;;;;;;11.30;99.90;;;;;;5097441;28;19962;-58
2023/10/13 03:27:17;;;;;;;;;;;11.30;99.90;;;;;;5097877;28;20299;-57
2023/10/13 03:29:44;;;;;;;;;;;11.20;99.90;;;;;;5098078;28;19918;-58
2023/10/13 03:32:17;;;;;;;;;;;11.20;99.90;;;;;;5097075;28;20006;-58
2023/10/13 03:34:52;;;;;;;;;;;11.30;99.90;;;;;;5098573;28;19959;-58
2023/10/13 03:37:35;;;;;;;;;;;11.20;99.90;;;;;;5097219;28;19961;-58
2023/10/13 03:40:06;;;;;;;;;;;11.20;99.90;;;;;;5098583;28;19911;-58
2023/10/13 03:42:32;;;;;;;;;;;11.10;99.90;;;;;;5098335;28;20220;-58
2023/10/13 03:44:57;;;;;;;;;;;11.10;99.90;;;;;;5098401;28;20028;-58
2023/10/13 03:47:32;;;;;;;;;;;11.10;99.90;;;;;;5098327;28;19915;-58
2023/10/13 03:50:16;;;;;;;;;;;11.00;99.90;;;;;;5098459;28;19938;-58
2023/10/13 03:52:41;;;;;;;;;;;11.00;99.90;;;;;;5097004;28;19913;-58
2023/10/13 03:55:08;;;;;;;;;;;11.00;99.90;;;;;;5098051;28;19919;-58
2023/10/13 03:57:34;;;;;;;;;;;11.00;99.90;;;;;;5098164;28;19916;-57
2023/10/13 04:00:08;;;;;;;;;;;11.00;99.90;;;;;;5098207;28;20372;-58
2023/10/13 04:02:38;;;;;;;;;;;10.90;99.90;;;;;;5097555;28;19916;-58
2023/10/13 04:05:10;;;;;;;;;;;10.90;99.90;;;;;;5098138;28;19919;-58
2023/10/13 04:08:38;;;;;;;;;;;10.90;99.90;;;;;;5097919;28;20396;-58
2023/10/13 04:27:15;;;;;;;;;;;10.70;99.90;;;;;;5117941;28;20380;-58
2023/10/13 04:32:19;;;;;;;;;;;10.70;99.90;;;;;;5117615;28;20277;-57
2023/10/13 04:34:51;;;;;;;;;;;10.70;99.90;;;;;;5116674;28;19954;-57
2023/10/13 04:37:29;;;;;;;;;;;10.70;99.90;;;;;;5117747;28;20272;-57
2023/10/13 04:40:08;;;;;;;;;;;10.70;99.90;;;;;;5117626;28;19918;-57
2023/10/13 04:42:49;;;;;;;;;;;10.70;99.90;;;;;;5116560;28;19916;-57
2023/10/13 04:47:58;;;;;;;;;;;10.70;99.90;;;;;;5117479;28;19919;-57
2023/10/13 04:50:34;;;;;;;;;;;10.70;99.90;;;;;;5117590;28;19908;-57
2023/10/13 04:53:13;;;;;;;;;;;10.70;99.90;;;;;;5117552;28;19918;-57
2023/10/13 06:31:05;;;;;;;;;;;15.80;99.90;;;;;;5095447;28;19978;-58
2023/10/13 06:33:33;;;;;;;;;;;16.00;99.90;;;;;;5095499;28;20006;-58
2023/10/13 06:35:59;;;;;;;;;;;16.10;99.90;;;;;;5095529;28;19977;-58
2023/10/13 06:38:30;;;;;;;;;;;16.20;99.90;;;;;;5095695;28;19959;-58
2023/10/13 06:40:57;;;;;;;;;;;16.30;99.90;;;;;;5095215;28;19938;-58
2023/10/13 06:43:23;;;;;;;;;;;16.60;99.90;;;;;;5095135;28;19991;-58
2023/10/13 06:46:07;;;;;;;;;;;16.60;99.90;;;;;;5102233;28;19963;-57
2023/10/13 06:48:34;;;;;;;;;;;16.60;99.90;;;;;;5093437;27;19967;-58
2023/10/13 06:51:17;;;;;;;;;;;17.10;99.00;;;;;;5095664;28;19951;-58
2023/10/13 06:53:47;;;;;;;;;;;17.30;98.60;;;;;;5095484;28;20498;-58
2023/10/13 06:56:17;;;;;;;;;;;17.60;97.70;;;;;;5095591;28;19916;-58
2023/10/13 06:58:46;;;;;;;;;;;17.90;97.10;;;;;;5095806;28;20404;-58
2023/10/13 07:01:15;;;;;;;;;;;18.20;96.70;;;;;;5095163;27;19958;-58
2023/10/13 07:03:41;;;;;;;;;;;18.50;95.80;;;;;;5094298;28;20018;-58
2023/10/13 07:06:11;;;;;;;;;;;18.70;95.30;;;;;;5093228;28;19912;-58
2023/10/13 07:08:38;;;;;;;;;;;19.00;95.10;;;;;;5098806;28;19912;-58
2023/10/13 07:11:05;;;;;;;;;;;19.30;93.90;;;;;;5099185;28;20003;-58
2023/10/13 07:13:31;;;;;;;;;;;19.80;93.50;;;;;;5098434;28;20395;-58
2023/10/13 07:16:05;;;;;;;;;;;19.90;91.90;;;;;;5080797;28;19916;-58
2023/10/13 07:18:36;;;;;;;;;;;20.40;92.00;;;;;;5081907;28;20445;-58
2023/10/13 07:21:10;;;;;;;;;;;20.60;89.40;;;;;;5087122;28;19924;-58
2023/10/13 07:23:37;;;;;;;;;;;20.90;89.60;;;;;;5087940;28;19917;-58
2023/10/13 07:26:04;;;;;;;;;;;21.20;87.90;;;;;;5085112;28;19916;-58
2023/10/13 07:28:30;;;;;;;;;;;21.30;86.50;;;;;;5081511;28;19919;-58
2023/10/13 07:33:25;;;;;;;;;;;21.90;82.20;;;;;;5087194;27;19919;-58
2023/10/13 07:36:00;;;;;;;;;;;21.80;83.20;;;;;;5098156;28;20385;-58
2023/10/13 07:38:30;;;;;;;;;;;22.00;81.30;;;;;;5096956;28;19920;-58
2023/10/13 07:41:06;;;;;;;;;;;21.90;80.40;;;;;;5098383;28;19912;-58
2023/10/13 07:43:32;;;;;;;;;;;21.90;82.40;;;;;;5098052;28;20018;-58
2023/10/13 07:45:59;;;;;;;;;;;22.70;80.00;;;;;;5096190;28;19912;-58
2023/10/13 07:48:25;;;;;;;;;;;22.60;76.80;;;;;;5097875;28;19919;-58
2023/10/13 07:51:11;;;;;;;;;;;22.90;74.50;;;;;;5098337;28;20357;-58
2023/10/13 07:53:40;;;;;;;;;;;23.10;76.30;;;;;;5097672;28;19919;-58
2023/10/13 07:56:18;;;;;;;;;;;23.20;74.00;;;;;;5098731;28;19942;-58
2023/10/13 07:58:52;;;;;;;;;;;23.20;73.60;;;;;;5098294;28;19912;-58
2023/10/13 08:01:18;;;;;;;;;;;23.60;74.00;;;;;;5097363;28;19916;-58
2023/10/13 08:03:46;;;;;;;;;;;23.50;73.10;;;;;;5091542;28;19938;-58
2023/10/13 08:08:39;;;;;;;;;;;24.20;68.90;;;;;;5097646;28;20277;-58
2023/10/13 08:13:53;;;;;;;;;;;24.60;66.80;;;;;;5077217;28;19952;-59
2023/10/13 08:16:23;;;;;;;;;;;25.10;68.20;;;;;;5083383;28;19919;-58
2023/10/13 08:18:49;;;;;;;;;;;25.10;66.50;;;;;;5117583;28;20372;-58
2023/10/13 08:21:22;;;;;;;;;;;25.60;66.00;;;;;;5117479;28;20361;-58
2023/10/13 08:26:57;;;;;;;;;;;25.70;63.00;;;;;;5117950;28;20277;-59
2023/10/13 08:32:14;;;;;;;;;;;26.20;61.30;;;;;;5117770;28;19912;-59
2023/10/13 08:37:19;;;;;;;;;;;26.90;58.00;;;;;;5097065;28;19912;-59
2023/10/13 08:42:34;;;;;;;;;;;27.60;55.60;;;;;;5096624;28;19916;-59
2023/10/13 08:45:04;;;;;;;;;;;27.40;55.10;;;;;;5096557;28;19916;-59
2023/10/13 08:47:36;;;;;;;;;;;27.60;53.00;;;;;;5096614;28;19920;-59
2023/10/13 08:50:31;;;;;;;;;;;28.10;51.00;;;;;;5094942;28;20281;-59
2023/10/13 08:52:49;;;;;;;;;;;28.00;51.40;;;;;;5095482;28;19912;-59
2023/10/13 08:58:13;;;;;;;;;;;27.90;50.00;;;;;;5096907;28;20010;-59
2023/10/13 09:00:56;;;;;;;;;;;28.20;50.10;;;;;;5096060;28;19984;-59
2023/10/13 09:06:00;;;;;;;;;;;28.60;48.50;;;;;;5096136;28;19988;-59
2023/10/13 09:08:35;;;;;;;;;;;28.70;45.60;;;;;;5096446;28;19912;-59
2023/10/13 09:11:13;;;;;;;;;;;28.60;47.90;;;;;;5093983;28;20440;-59
2023/10/13 09:13:45;;;;;;;;;;;28.70;47.60;;;;;;5094557;28;19912;-59
2023/10/13 09:19:11;;;;;;;;;;;29.50;43.00;;;;;;5075969;28;19912;-59
2023/10/13 09:24:27;;;;;;;;;;;29.60;43.40;;;;;;5096106;28;20369;-59
2023/10/13 09:26:55;;;;;;;;;;;29.50;41.80;;;;;;5096265;28;20446;-59
2023/10/13 09:29:22;;;;;;;;;;;29.50;43.30;;;;;;5095854;28;19913;-59
2023/10/13 09:31:59;;;;;;;;;;;29.70;43.20;;;;;;5096496;28;19920;-59
2023/10/13 09:34:29;;;;;;;;;;;30.30;41.20;;;;;;5095406;28;19913;-59
2023/10/13 09:36:58;;;;;;;;;;;30.70;43.40;;;;;;5095591;28;20364;-59
2023/10/13 09:39:34;;;;;;;;;;;30.70;40.60;;;;;;5094271;28;20406;-59
2023/10/13 09:42:01;;;;;;;;;;;30.90;41.60;;;;;;5094231;28;19922;-59
2023/10/13 09:44:31;;;;;;;;;;;30.60;38.90;;;;;;5090895;28;20399;-59
2023/10/13 09:47:03;;;;;;;;;;;30.50;40.50;;;;;;5095459;28;19912;-59
2023/10/13 09:49:44;;;;;;;;;;;30.40;39.80;;;;;;5095738;28;19920;-59
2023/10/13 09:52:19;;;;;;;;;;;30.30;39.10;;;;;;5095946;28;19966;-59
2023/10/13 09:55:03;;;;;;;;;;;30.70;39.10;;;;;;5096391;28;19935;-59
2023/10/13 09:57:40;;;;;;;;;;;30.20;39.00;;;;;;5095588;28;19912;-59
2023/10/13 10:03:14;;;;;;;;;;;31.10;39.20;;;;;;5093132;28;20003;-59
2023/10/13 10:05:59;;;;;;;;;;;31.50;38.30;;;;;;5095197;28;19919;-59
2023/10/13 10:08:37;;;;;;;;;;;31.90;35.90;;;;;;5095673;28;19960;-59
2023/10/13 10:11:19;;;;;;;;;;;31.30;35.70;;;;;;5095938;28;19966;-59
2023/10/13 10:13:57;;;;;;;;;;;31.70;35.90;;;;;;5074859;28;20270;-59
2023/10/13 10:16:46;;;;;;;;;;;32.40;33.80;;;;;;5083967;28;20010;-59
2023/10/13 10:19:12;;;;;;;;;;;32.20;33.60;;;;;;5108676;28;19927;-59
2023/10/13 10:21:38;;;;;;;;;;;31.90;35.70;;;;;;5095953;27;19912;-59
2023/10/13 10:24:13;;;;;;;;;;;32.20;32.90;;;;;;5095855;28;19958;-59
2023/10/13 10:26:51;;;;;;;;;;;31.90;32.20;;;;;;5095385;28;20384;-59
2023/10/13 10:29:17;;;;;;;;;;;31.20;33.30;;;;;;5115123;28;19912;-59
2023/10/13 10:31:45;;;;;;;;;;;31.00;33.60;;;;;;5116075;28;19966;-59
2023/10/13 10:34:12;;;;;;;;;;;32.10;35.60;;;;;;5115734;28;19911;-59
2023/10/13 10:36:42;;;;;;;;;;;31.80;32.50;;;;;;5115547;28;20269;-60
2023/10/13 10:39:10;;;;;;;;;;;32.20;30.10;;;;;;5116965;28;19999;-59
2023/10/13 10:41:51;;;;;;;;;;;32.20;30.30;;;;;;5113743;28;20456;-59
2023/10/13 10:47:30;;;;;;;;;;;32.40;30.00;;;;;;5094019;28;20010;-59
2023/10/13 10:50:00;;;;;;;;;;;33.10;30.00;;;;;;5078764;28;19919;-60
2023/10/13 10:52:27;;;;;;;;;;;33.10;30.20;;;;;;5078797;28;19919;-59
2023/10/13 10:54:59;;;;;;;;;;;33.20;30.90;;;;;;5078788;28;19999;-60
2023/10/13 10:57:28;;;;;;;;;;;33.60;28.80;;;;;;5098025;28;20370;-59
2023/10/13 11:00:10;;;;;;;;;;;33.40;28.20;;;;;;5097703;28;19951;-59
2023/10/13 11:02:37;;;;;;;;;;;33.20;29.50;;;;;;5092617;28;19968;-59
2023/10/13 11:05:05;;;;;;;;;;;32.50;28.20;;;;;;5093400;28;19916;-60
2023/10/13 11:07:34;;;;;;;;;;;32.90;28.40;;;;;;5099647;28;19999;-60
2023/10/13 11:10:10;;;;;;;;;;;33.00;29.80;;;;;;5089628;28;20334;-59
2023/10/13 11:12:36;;;;;;;;;;;33.30;28.10;;;;;;5096213;28;19918;-60
2023/10/13 11:15:22;;;;;;;;;;;33.60;26.70;;;;;;5098899;28;20480;-60
2023/10/13 11:17:51;;;;;;;;;;;33.30;27.30;;;;;;5114707;28;20002;-60
2023/10/13 11:20:18;;;;;;;;;;;33.20;27.10;;;;;;5118796;28;20246;-60
2023/10/13 11:22:47;;;;;;;;;;;33.60;28.40;;;;;;5107464;28;20342;-60
2023/10/13 11:25:22;;;;;;;;;;;33.70;26.80;;;;;;5098726;28;19947;-60
2023/10/13 11:30:15;;;;;;;;;;;33.20;27.10;;;;;;5095753;28;19912;-59
2023/10/13 11:32:41;;;;;;;;;;;33.10;26.80;;;;;;5098707;28;19919;-59
2023/10/13 11:35:20;;;;;;;;;;;33.70;27.10;;;;;;5098131;28;19912;-59
2023/10/13 11:37:55;;;;;;;;;;;33.80;25.40;;;;;;5095381;27;20013;-59
2023/10/13 11:40:43;;;;;;;;;;;33.30;26.70;;;;;;5098280;28;19966;-60
2023/10/13 11:43:13;;;;;;;;;;;32.40;26.00;;;;;;5097898;28;19985;-61
2023/10/13 11:45:54;;;;;;;;;;;32.70;26.10;;;;;;5098415;28;20289;-61
2023/10/13 11:48:34;;;;;;;;;;;32.10;27.70;;;;;;5096704;27;19912;-61
2023/10/13 11:51:02;;;;;;;;;;;32.80;27.10;;;;;;5097663;28;20440;-60
2023/10/13 11:53:28;;;;;;;;;;;33.30;26.10;;;;;;5098114;28;20289;-60
2023/10/13 11:55:55;;;;;;;;;;;33.30;25.70;;;;;;5090527;28;19913;-60
2023/10/13 11:58:21;;;;;;;;;;;33.10;25.50;;;;;;5092346;28;19916;-60
2023/10/13 12:08:49;;;;;;;;;;;31.20;29.80;;;;;;5098522;28;19912;-60
2023/10/13 12:11:31;;;;;;;;;;;31.80;30.00;;;;;;5097567;28;20269;-60
2023/10/13 12:13:56;;;;;;;;;;;32.10;28.50;;;;;;5092470;28;19955;-60
2023/10/13 12:16:23;;;;;;;;;;;32.30;29.00;;;;;;5101092;28;19923;-60
2023/10/13 12:18:53;;;;;;;;;;;32.70;28.40;;;;;;5081782;28;19923;-60
2023/10/13 12:21:21;;;;;;;;;;;31.70;27.80;;;;;;5077398;28;19912;-60
2023/10/13 12:23:47;;;;;;;;;;;31.60;29.90;;;;;;5076493;28;19920;-60
2023/10/13 12:26:32;;;;;;;;;;;31.10;28.50;;;;;;5076323;28;19927;-60
2023/10/13 12:29:06;;;;;;;;;;;30.70;29.60;;;;;;5077115;28;19961;-60
2023/10/13 12:31:32;;;;;;;;;;;31.10;29.50;;;;;;5083037;28;19912;-60
2023/10/13 12:34:06;;;;;;;;;;;31.30;27.30;;;;;;5096512;28;19958;-60
2023/10/13 12:36:53;;;;;;;;;;;31.70;26.40;;;;;;5097129;27;19917;-61
2023/10/13 12:50:43;;;;;;;;;;;30.70;26.70;;;;;;5096817;28;19916;-60
2023/10/13 12:53:13;;;;;;;;;;;31.10;25.60;;;;;;5095289;28;19916;-60
2023/10/13 12:55:40;;;;;;;;;;;31.30;26.30;;;;;;5096573;28;19912;-61
2023/10/13 12:58:08;;;;;;;;;;;31.20;26.50;;;;;;5096952;28;19912;-61
2023/10/13 13:00:33;;;;;;;;;;;30.50;27.00;;;;;;5085900;28;20003;-61
2023/10/13 13:03:10;;;;;;;;;;;30.70;27.40;;;;;;5090720;28;20366;-61
2023/10/13 13:05:44;;;;;;;;;;;30.60;27.10;;;;;;5096881;28;20003;-61
2023/10/13 13:08:12;;;;;;;;;;;31.10;27.00;;;;;;5096230;28;20365;-61
2023/10/13 13:10:38;;;;;;;;;;;31.50;27.20;;;;;;5096371;28;19999;-61
2023/10/13 13:13:05;;;;;;;;;;;31.10;26.10;;;;;;5096364;28;19912;-61
2023/10/13 13:15:31;;;;;;;;;;;31.30;26.50;;;;;;5096630;28;19912;-61
2023/10/13 13:17:57;;;;;;;;;;;31.00;27.40;;;;;;5112689;28;19947;-60
2023/10/13 13:20:28;;;;;;;;;;;31.30;27.70;;;;;;5107026;28;20365;-60
2023/10/13 13:22:54;;;;;;;;;;;31.00;26.80;;;;;;5080224;28;19916;-60
2023/10/13 13:25:26;;;;;;;;;;;31.20;27.10;;;;;;5095011;28;20355;-60
2023/10/13 13:27:52;;;;;;;;;;;31.30;27.10;;;;;;5096451;28;20404;-60
2023/10/13 13:30:19;;;;;;;;;;;30.80;27.80;;;;;;5096371;28;19908;-60
2023/10/13 13:32:45;;;;;;;;;;;31.20;26.80;;;;;;5096471;28;20273;-60
2023/10/13 13:35:13;;;;;;;;;;;30.60;28.30;;;;;;5096352;28;19919;-60
2023/10/13 13:37:39;;;;;;;;;;;30.70;27.00;;;;;;5096068;28;19935;-60
2023/10/13 13:40:15;;;;;;;;;;;31.00;27.10;;;;;;5096145;28;19912;-60
2023/10/13 13:42:44;;;;;;;;;;;30.70;27.20;;;;;;5096098;28;19969;-60
2023/10/13 13:45:21;;;;;;;;;;;30.70;27.70;;;;;;5096284;28;20181;-60
2023/10/13 13:47:53;;;;;;;;;;;30.60;27.60;;;;;;5096090;28;19913;-60
2023/10/13 13:50:24;;;;;;;;;;;30.40;29.00;;;;;;5096531;28;19919;-61
2023/10/13 13:52:52;;;;;;;;;;;30.20;28.90;;;;;;5095879;28;19919;-60
2023/10/13 13:55:19;;;;;;;;;;;30.30;28.50;;;;;;5094591;28;20327;-60
2023/10/13 13:57:45;;;;;;;;;;;30.80;28.20;;;;;;5096123;28;19916;-60
2023/10/13 14:00:17;;;;;;;;;;;30.80;27.40;;;;;;5096490;28;19912;-60
2023/10/13 14:02:47;;;;;;;;;;;30.80;28.70;;;;;;5096516;28;19920;-60
2023/10/13 14:05:15;;;;;;;;;;;30.80;27.80;;;;;;5096373;28;20003;-60
2023/10/13 14:07:48;;;;;;;;;;;30.60;28.60;;;;;;5094645;28;19916;-60
2023/10/13 14:10:16;;;;;;;;;;;30.70;28.20;;;;;;5095303;28;19935;-60
2023/10/13 14:12:42;;;;;;;;;;;30.60;28.70;;;;;;5094885;28;19912;-60
2023/10/13 14:15:23;;;;;;;;;;;30.70;28.60;;;;;;5095353;28;20381;-60
2023/10/13 14:17:49;;;;;;;;;;;30.60;28.80;;;;;;5111862;28;19916;-60
2023/10/13 14:20:21;;;;;;;;;;;30.30;28.70;;;;;;5116492;28;19912;-60
2023/10/13 14:22:49;;;;;;;;;;;30.20;29.00;;;;;;5116340;28;19915;-60
2023/10/13 14:25:15;;;;;;;;;;;30.10;28.80;;;;;;5115005;28;19912;-60
2023/10/13 14:27:41;;;;;;;;;;;30.10;28.80;;;;;;5116231;28;19912;-60
2023/10/13 14:30:07;;;;;;;;;;;30.10;31.20;;;;;;5116095;28;19912;-60
2023/10/13 14:32:40;;;;;;;;;;;29.70;30.80;;;;;;5116051;28;20403;-60
2023/10/13 14:35:14;;;;;;;;;;;29.60;30.30;;;;;;5116119;28;19921;-60
2023/10/13 14:37:40;;;;;;;;;;;29.50;30.90;;;;;;5116157;28;20426;-60
2023/10/13 14:40:11;;;;;;;;;;;29.20;31.60;;;;;;5116047;28;20389;-60
2023/10/13 14:42:40;;;;;;;;;;;28.90;35.10;;;;;;5116089;28;19916;-60
2023/10/13 14:45:16;;;;;;;;;;;28.60;37.20;;;;;;5116039;28;19911;-60
2023/10/13 14:47:42;;;;;;;;;;;28.40;35.80;;;;;;5116076;28;19916;-60
2023/10/13 14:50:14;;;;;;;;;;;28.50;35.00;;;;;;5116046;28;19930;-60
2023/10/13 14:52:40;;;;;;;;;;;28.30;37.40;;;;;;5115939;28;20003;-60
2023/10/13 14:55:15;;;;;;;;;;;28.30;38.00;;;;;;5115935;28;19939;-60
2023/10/13 14:57:41;;;;;;;;;;;28.20;39.20;;;;;;5115982;28;19951;-60
2023/10/13 15:00:13;;;;;;;;;;;27.70;39.60;;;;;;5115935;28;20264;-60
2023/10/13 15:02:39;;;;;;;;;;;27.50;40.10;;;;;;5115762;28;19923;-60
2023/10/13 15:05:04;;;;;;;;;;;27.20;41.70;;;;;;5115881;28;20289;-60
2023/10/13 15:07:30;;;;;;;;;;;26.90;43.80;;;;;;5115807;28;20369;-60
2023/10/13 15:09:57;;;;;;;;;;;26.60;44.30;;;;;;5115891;28;20046;-60
2023/10/13 15:12:22;;;;;;;;;;;26.40;44.50;;;;;;5105741;28;20002;-60
2023/10/13 15:14:48;;;;;;;;;;;26.30;45.90;;;;;;5095401;28;19959;-60
2023/10/13 15:17:16;;;;;;;;;;;26.00;46.90;;;;;;5106255;28;20361;-60
2023/10/13 15:19:42;;;;;;;;;;;25.80;47.80;;;;;;5115758;28;20433;-60
2023/10/13 15:22:16;;;;;;;;;;;25.50;48.50;;;;;;5115726;28;19920;-60
2023/10/13 15:24:57;;;;;;;;;;;25.50;49.00;;;;;;5116041;28;19912;-60
2023/10/13 15:27:23;;;;;;;;;;;25.20;49.40;;;;;;5118601;28;19916;-60
2023/10/13 15:29:50;;;;;;;;;;;24.90;51.30;;;;;;5119310;28;19916;-60
2023/10/13 15:35:01;;;;;;;;;;;24.30;53.40;;;;;;5119284;28;19916;-60
2023/10/13 15:37:27;;;;;;;;;;;23.90;54.70;;;;;;5119101;28;19912;-60
2023/10/13 15:39:53;;;;;;;;;;;23.70;55.30;;;;;;5119086;28;20296;-60
2023/10/13 15:42:20;;;;;;;;;;;23.40;56.60;;;;;;5118895;28;19912;-60
2023/10/13 15:44:48;;;;;;;;;;;23.30;57.00;;;;;;5118995;28;19957;-60
2023/10/13 15:47:14;;;;;;;;;;;23.00;58.40;;;;;;5119053;28;19911;-60
2023/10/13 15:49:42;;;;;;;;;;;22.90;59.50;;;;;;5119057;28;19912;-60
2023/10/13 15:52:09;;;;;;;;;;;22.70;61.10;;;;;;5118584;28;19969;-60
2023/10/13 15:54:35;;;;;;;;;;;22.60;62.50;;;;;;5118912;28;19947;-60
2023/10/13 15:57:01;;;;;;;;;;;22.30;64.00;;;;;;5118826;28;19912;-60
2023/10/13 15:59:26;;;;;;;;;;;22.00;65.70;;;;;;5118683;28;19912;-60
2023/10/13 16:01:57;;;;;;;;;;;21.80;67.50;;;;;;5118147;28;19922;-59
2023/10/13 16:04:23;;;;;;;;;;;21.60;69.70;;;;;;5118635;28;19922;-59
2023/10/13 16:06:52;;;;;;;;;;;21.40;70.90;;;;;;5118608;28;20296;-59
2023/10/13 16:09:25;;;;;;;;;;;21.10;72.30;;;;;;5118530;28;19912;-59
2023/10/13 16:11:51;;;;;;;;;;;21.00;74.30;;;;;;5112968;27;19920;-59
2023/10/13 16:14:20;;;;;;;;;;;20.90;76.60;;;;;;5097989;28;19913;-59
2023/10/13 16:16:47;;;;;;;;;;;20.60;79.80;;;;;;5104924;28;19912;-60
2023/10/13 16:19:26;;;;;;;;;;;20.40;82.90;;;;;;5118358;28;20014;-59
2023/10/13 16:21:53;;;;;;;;;;;20.20;86.90;;;;;;5118159;28;19915;-59
2023/10/13 16:24:19;;;;;;;;;;;20.20;88.80;;;;;;5118278;28;20343;-59
2023/10/13 16:26:45;;;;;;;;;;;20.10;90.00;;;;;;5118237;28;20006;-59
2023/10/13 16:29:10;;;;;;;;;;;20.00;90.60;;;;;;5118266;28;19974;-59
2023/10/13 16:31:36;;;;;;;;;;;19.90;90.90;;;;;;5117875;28;19908;-59
2023/10/13 16:34:04;;;;;;;;;;;19.80;91.80;;;;;;5117933;28;19942;-59
2023/10/13 16:36:31;;;;;;;;;;;19.70;92.50;;;;;;5118142;28;20006;-59
2023/10/13 16:38:57;;;;;;;;;;;19.60;93.40;;;;;;5118046;28;19912;-59
2023/10/13 16:41:29;;;;;;;;;;;19.50;94.40;;;;;;5117745;28;19911;-59
2023/10/13 16:43:55;;;;;;;;;;;19.40;95.50;;;;;;5117636;28;19916;-59
2023/10/13 16:46:20;;;;;;;;;;;19.20;96.50;;;;;;5117785;28;20432;-59
2023/10/13 16:48:49;;;;;;;;;;;19.10;97.40;;;;;;5117845;28;20434;-59
2023/10/13 16:51:15;;;;;;;;;;;19.00;97.90;;;;;;5117734;28;19908;-59
2023/10/13 16:53:49;;;;;;;;;;;18.90;98.60;;;;;;5117541;28;19981;-59
2023/10/13 16:56:16;;;;;;;;;;;18.80;99.00;;;;;;5117671;28;19951;-59
2023/10/13 16:58:45;;;;;;;;;;;18.70;99.50;;;;;;5117488;28;19951;-59
2023/10/13 17:01:11;;;;;;;;;;;18.60;99.70;;;;;;5117463;28;19971;-59
2023/10/13 17:03:40;;;;;;;;;;;18.60;99.90;;;;;;5117368;28;19916;-59
2023/10/13 17:06:09;;;;;;;;;;;18.50;99.90;;;;;;5117385;28;19912;-59
2023/10/13 17:08:38;;;;;;;;;;;18.40;99.90;;;;;;5117413;28;19912;-59
2023/10/13 17:11:13;;;;;;;;;;;18.20;99.90;;;;;;5117189;28;19922;-59
2023/10/13 17:13:40;;;;;;;;;;;18.10;99.90;;;;;;5076346;28;19912;-59
2023/10/13 17:16:17;;;;;;;;;;;18.20;99.90;;;;;;5079027;28;20010;-59
2023/10/13 17:18:47;;;;;;;;;;;18.00;99.90;;;;;;5117232;28;19961;-59
2023/10/13 17:21:24;;;;;;;;;;;18.00;99.90;;;;;;5117087;28;19919;-59
2023/10/13 17:23:51;;;;;;;;;;;17.90;99.90;;;;;;5116910;28;19916;-59
2023/10/13 17:26:22;;;;;;;;;;;17.70;99.90;;;;;;5117077;28;20254;-59
2023/10/13 17:28:49;;;;;;;;;;;17.60;99.90;;;;;;5117228;28;19919;-59
2023/10/13 17:31:14;;;;;;;;;;;17.50;99.90;;;;;;5117322;28;19964;-59
2023/10/13 17:33:42;;;;;;;;;;;17.50;99.90;;;;;;5116873;28;19912;-59
2023/10/13 17:36:08;;;;;;;;;;;17.40;99.90;;;;;;5116805;28;19911;-59
2023/10/13 17:38:35;;;;;;;;;;;17.30;99.90;;;;;;5116865;28;19930;-59